Time;durP1;ratioP1;P1;durP2;ratioP2;P2;SDS_P1;SDS_P2;PMS_P1;PMS_P2;Temp;Humidity;BMP_temperature;BMP_pressure;BME280_temperature;BME280_humidity;BME280_pressure;Samples;Min_cycle;Max_cycle;Signal;HPM_P1;HPM_P2
2023/01/03 00:02:02;;;;;;;;;;;2.10;99.90;;;;;;4802880;29;20612;-70
2023/01/03 00:04:27;;;;;;;;;;;2.20;99.90;;;;;;4820493;29;19957;-70
2023/01/03 00:06:53;;;;;;;;;;;2.20;99.90;;;;;;4840809;29;20319;-70
2023/01/03 00:09:20;;;;;;;;;;;2.20;99.90;;;;;;4838649;29;19939;-70
2023/01/03 00:14:32;;;;;;;;;;;2.20;99.90;;;;;;4836875;29;19931;-71
2023/01/03 00:16:58;;;;;;;;;;;2.20;99.90;;;;;;4817461;29;19928;-71
2023/01/03 00:19:25;;;;;;;;;;;2.20;99.90;;;;;;4818482;29;19924;-70
2023/01/03 00:21:51;;;;;;;;;;;2.20;99.90;;;;;;4835346;29;19924;-70
2023/01/03 00:24:17;;;;;;;;;;;2.30;99.90;;;;;;4822845;29;20392;-70
2023/01/03 00:26:43;;;;;;;;;;;2.30;99.90;;;;;;4834867;29;19924;-70
2023/01/03 00:29:09;;;;;;;;;;;2.40;99.90;;;;;;4839971;29;19928;-70
2023/01/03 00:31:35;;;;;;;;;;;2.40;99.90;;;;;;4836095;29;19931;-70
2023/01/03 00:34:00;;;;;;;;;;;2.50;99.90;;;;;;4834710;29;20018;-70
2023/01/03 00:36:26;;;;;;;;;;;2.60;99.90;;;;;;4842406;29;20007;-70
2023/01/03 00:38:51;;;;;;;;;;;2.60;99.90;;;;;;4842521;29;19932;-71
2023/01/03 00:41:18;;;;;;;;;;;2.70;99.90;;;;;;4844452;29;20041;-70
2023/01/03 00:43:44;;;;;;;;;;;2.80;99.90;;;;;;4830515;29;19924;-70
2023/01/03 00:46:11;;;;;;;;;;;2.90;99.90;;;;;;4840406;29;20043;-71
2023/01/03 00:48:37;;;;;;;;;;;2.90;99.90;;;;;;4836896;29;19932;-70
2023/01/03 00:51:11;;;;;;;;;;;2.90;99.90;;;;;;4859497;29;20373;-70
2023/01/03 00:53:37;;;;;;;;;;;3.00;99.90;;;;;;4839494;29;20015;-70
2023/01/03 00:56:07;;;;;;;;;;;3.00;99.90;;;;;;4839888;29;19952;-70
2023/01/03 00:58:33;;;;;;;;;;;2.90;99.90;;;;;;4835989;29;19928;-70
2023/01/03 01:01:05;;;;;;;;;;;2.90;99.90;;;;;;4839377;29;20007;-70
2023/01/03 01:03:31;;;;;;;;;;;2.80;99.90;;;;;;4843455;29;20645;-70
2023/01/03 01:05:56;;;;;;;;;;;2.80;99.90;;;;;;4842530;29;19964;-70
2023/01/03 01:08:22;;;;;;;;;;;2.70;99.90;;;;;;4816313;29;20137;-71
2023/01/03 01:11:00;;;;;;;;;;;2.70;99.90;;;;;;4859804;29;19928;-71
2023/01/03 01:13:30;;;;;;;;;;;2.70;99.90;;;;;;4830967;29;19935;-70
2023/01/03 01:16:00;;;;;;;;;;;2.70;99.90;;;;;;4843194;29;20343;-71
2023/01/03 01:18:25;;;;;;;;;;;2.70;99.90;;;;;;4829537;29;20460;-71
2023/01/03 01:20:51;;;;;;;;;;;2.70;99.90;;;;;;4834459;29;20046;-71
2023/01/03 01:23:16;;;;;;;;;;;2.70;99.90;;;;;;4843853;29;19924;-70
2023/01/03 01:25:42;;;;;;;;;;;2.70;99.90;;;;;;4839843;29;19931;-70
2023/01/03 01:28:08;;;;;;;;;;;2.80;99.90;;;;;;4839890;29;20492;-70
2023/01/03 01:30:35;;;;;;;;;;;2.80;99.90;;;;;;4823826;29;20030;-70
2023/01/03 01:33:01;;;;;;;;;;;2.90;99.90;;;;;;4826656;29;19924;-70
2023/01/03 01:35:26;;;;;;;;;;;2.90;99.90;;;;;;4838196;29;19947;-70
2023/01/03 01:37:52;;;;;;;;;;;3.00;99.90;;;;;;4834321;29;19936;-70
2023/01/03 01:40:18;;;;;;;;;;;3.00;99.90;;;;;;4839568;29;19931;-70
2023/01/03 01:45:27;;;;;;;;;;;3.10;99.90;;;;;;4841531;29;19925;-70
2023/01/03 01:47:53;;;;;;;;;;;3.10;99.90;;;;;;4840310;29;19956;-70
2023/01/03 01:50:30;;;;;;;;;;;3.10;99.90;;;;;;4837074;29;19935;-71
2023/01/03 01:52:56;;;;;;;;;;;3.00;99.90;;;;;;4831386;29;19927;-70
2023/01/03 01:55:23;;;;;;;;;;;3.00;99.90;;;;;;4837593;29;19935;-70
2023/01/03 01:57:49;;;;;;;;;;;2.90;99.90;;;;;;4824107;29;19924;-71
2023/01/03 02:00:14;;;;;;;;;;;2.80;99.90;;;;;;4822334;29;19924;-70
2023/01/03 02:02:41;;;;;;;;;;;2.70;99.90;;;;;;4824505;29;19928;-71
2023/01/03 02:05:07;;;;;;;;;;;2.60;99.90;;;;;;4834921;29;20002;-71
2023/01/03 02:07:33;;;;;;;;;;;2.50;99.90;;;;;;4833347;29;20018;-71
2023/01/03 02:09:59;;;;;;;;;;;2.40;99.90;;;;;;4813467;29;20019;-71
2023/01/03 02:15:16;;;;;;;;;;;2.30;99.90;;;;;;4833464;29;20393;-70
2023/01/03 02:17:45;;;;;;;;;;;2.10;99.90;;;;;;4844322;29;19924;-70
2023/01/03 02:20:26;;;;;;;;;;;2.10;99.90;;;;;;4830124;29;19989;-70
2023/01/03 02:23:10;;;;;;;;;;;2.00;99.90;;;;;;4823893;29;20718;-71
2023/01/03 02:25:42;;;;;;;;;;;1.80;99.90;;;;;;4833519;29;19924;-71
2023/01/03 02:28:34;;;;;;;;;;;1.80;99.90;;;;;;4824012;29;20377;-71
2023/01/03 02:31:07;;;;;;;;;;;1.70;99.90;;;;;;4800673;29;20124;-71
2023/01/03 02:33:38;;;;;;;;;;;1.70;99.90;;;;;;4839126;29;19924;-71
2023/01/03 02:36:04;;;;;;;;;;;1.70;99.90;;;;;;4828833;29;19928;-71
2023/01/03 02:38:36;;;;;;;;;;;1.70;99.90;;;;;;4838799;29;19939;-70
2023/01/03 02:41:10;;;;;;;;;;;1.70;99.90;;;;;;4843299;29;19925;-70
2023/01/03 02:43:48;;;;;;;;;;;1.60;99.90;;;;;;4837364;29;20016;-70
2023/01/03 02:46:22;;;;;;;;;;;1.50;99.90;;;;;;4838691;29;19924;-70
2023/01/03 02:48:48;;;;;;;;;;;1.50;99.90;;;;;;4826669;29;19947;-70
2023/01/03 02:51:27;;;;;;;;;;;1.40;99.90;;;;;;4843820;29;19927;-70
2023/01/03 02:53:53;;;;;;;;;;;1.40;99.90;;;;;;4824763;29;19932;-70
2023/01/03 02:56:21;;;;;;;;;;;1.30;99.90;;;;;;4849089;29;19928;-70
2023/01/03 02:58:51;;;;;;;;;;;1.40;99.90;;;;;;4836818;29;20386;-71
2023/01/03 03:01:17;;;;;;;;;;;1.40;99.90;;;;;;4833763;29;19931;-70
2023/01/03 03:03:43;;;;;;;;;;;1.40;99.90;;;;;;4832784;29;19924;-70
2023/01/03 03:06:09;;;;;;;;;;;1.50;99.90;;;;;;4838716;29;19980;-71
2023/01/03 03:08:35;;;;;;;;;;;1.50;99.90;;;;;;4832496;29;19928;-70
2023/01/03 03:13:51;;;;;;;;;;;1.50;99.90;;;;;;4834904;29;19928;-70
2023/01/03 03:24:55;;;;;;;;;;;1.40;99.90;;;;;;4838924;29;19932;-70
2023/01/03 03:30:10;;;;;;;;;;;1.40;99.90;;;;;;4843281;29;19954;-70
2023/01/03 03:32:37;;;;;;;;;;;1.40;99.90;;;;;;4831585;29;19985;-70
2023/01/03 03:35:05;;;;;;;;;;;1.40;99.90;;;;;;4832149;29;19924;-71
2023/01/03 03:37:32;;;;;;;;;;;1.40;99.90;;;;;;4823200;29;20304;-71
2023/01/03 03:45:43;;;;;;;;;;;1.40;99.90;;;;;;4840064;29;20455;-70
2023/01/03 03:48:09;;;;;;;;;;;1.40;99.90;;;;;;4837739;29;19925;-70
2023/01/03 03:50:38;;;;;;;;;;;1.40;99.90;;;;;;4828810;29;19980;-70
2023/01/03 03:53:05;;;;;;;;;;;1.50;99.90;;;;;;4851572;29;19924;-70
2023/01/03 03:55:35;;;;;;;;;;;1.60;99.90;;;;;;4832269;29;19936;-70
2023/01/03 03:58:13;;;;;;;;;;;1.60;99.90;;;;;;4840221;29;19928;-70
2023/01/03 04:00:40;;;;;;;;;;;1.70;99.90;;;;;;4829445;29;19924;-71
2023/01/03 04:03:06;;;;;;;;;;;1.70;99.90;;;;;;4837953;29;19952;-70
2023/01/03 04:05:38;;;;;;;;;;;1.80;99.90;;;;;;4842658;29;19932;-70
2023/01/03 04:08:04;;;;;;;;;;;1.80;99.90;;;;;;4840385;29;19952;-71
2023/01/03 04:10:29;;;;;;;;;;;1.70;99.90;;;;;;4839407;29;19932;-70
2023/01/03 04:12:55;;;;;;;;;;;1.70;99.90;;;;;;4825187;29;20472;-71
2023/01/03 04:15:21;;;;;;;;;;;1.60;99.90;;;;;;4825187;29;19939;-71
2023/01/03 04:17:46;;;;;;;;;;;1.60;99.90;;;;;;4844467;29;19960;-70
2023/01/03 04:20:12;;;;;;;;;;;1.60;99.90;;;;;;4840205;29;20405;-70
2023/01/03 04:22:38;;;;;;;;;;;1.60;99.90;;;;;;4823151;29;19924;-71
2023/01/03 04:25:04;;;;;;;;;;;1.60;99.90;;;;;;4841584;29;20346;-70
2023/01/03 04:27:30;;;;;;;;;;;1.70;99.90;;;;;;4840924;29;19988;-70
2023/01/03 04:29:55;;;;;;;;;;;1.70;99.90;;;;;;4839708;29;19983;-70
2023/01/03 04:32:21;;;;;;;;;;;1.80;99.90;;;;;;4827717;29;19928;-70
2023/01/03 04:34:46;;;;;;;;;;;1.90;99.90;;;;;;4821159;29;19932;-70
2023/01/03 04:37:12;;;;;;;;;;;1.90;99.90;;;;;;4838805;29;20456;-70
2023/01/03 04:39:38;;;;;;;;;;;2.00;99.90;;;;;;4830726;29;19924;-70
2023/01/03 04:44:00;;;;;;;;;;;2.00;99.90;;;;;;4816652;29;20007;-70
2023/01/03 04:44:49;;;;;;;;;;;2.10;99.90;;;;;;4842031;29;20361;-71
2023/01/03 04:47:15;;;;;;;;;;;2.20;99.90;;;;;;4824476;29;19974;-71
2023/01/03 04:49:46;;;;;;;;;;;2.20;99.90;;;;;;4830415;29;20945;-70
2023/01/03 04:52:13;;;;;;;;;;;2.20;99.90;;;;;;4836069;29;20430;-70
2023/01/03 04:54:38;;;;;;;;;;;2.30;99.90;;;;;;4849822;29;20379;-70
2023/01/03 04:57:04;;;;;;;;;;;2.30;99.90;;;;;;4844149;29;19924;-70
2023/01/03 04:59:29;;;;;;;;;;;2.30;99.90;;;;;;4830058;29;19985;-71
2023/01/03 05:01:55;;;;;;;;;;;2.30;99.90;;;;;;4828378;29;20019;-71
2023/01/03 05:04:21;;;;;;;;;;;2.20;99.90;;;;;;4839824;29;19928;-71
2023/01/03 05:06:46;;;;;;;;;;;2.30;99.90;;;;;;4837318;29;19947;-71
2023/01/03 05:09:12;;;;;;;;;;;2.30;99.90;;;;;;4838373;29;20034;-70
2023/01/03 05:11:37;;;;;;;;;;;2.20;99.90;;;;;;4839557;29;20452;-71
2023/01/03 05:14:03;;;;;;;;;;;2.10;99.90;;;;;;4853777;29;19931;-70
2023/01/03 05:16:29;;;;;;;;;;;2.10;99.90;;;;;;4836437;29;20016;-70
2023/01/03 05:18:55;;;;;;;;;;;2.00;99.90;;;;;;4839674;29;20286;-70
2023/01/03 05:26:52;;;;;;;;;;;1.80;99.90;;;;;;4845927;29;19933;-70
2023/01/03 05:29:18;;;;;;;;;;;1.70;99.90;;;;;;4841035;29;20309;-70
2023/01/03 05:31:44;;;;;;;;;;;1.60;99.90;;;;;;4837709;29;19928;-70
2023/01/03 05:34:10;;;;;;;;;;;1.50;99.90;;;;;;4836774;29;20819;-70
2023/01/03 05:36:35;;;;;;;;;;;1.40;99.90;;;;;;4839163;29;19923;-70
2023/01/03 05:39:01;;;;;;;;;;;1.40;99.90;;;;;;4838973;29;19924;-70
2023/01/03 05:42:12;;;;;;;;;;;1.30;99.90;;;;;;4841822;29;19935;-70
2023/01/03 05:44:12;;;;;;;;;;;1.30;99.90;;;;;;4839419;29;19924;-70
2023/01/03 05:46:38;;;;;;;;;;;1.20;99.90;;;;;;4848795;29;19924;-70
2023/01/03 05:49:03;;;;;;;;;;;1.20;99.90;;;;;;4823785;29;19928;-70
2023/01/03 05:51:29;;;;;;;;;;;1.10;99.90;;;;;;4828903;29;19928;-69
2023/01/03 05:53:55;;;;;;;;;;;1.10;99.90;;;;;;4850700;29;19929;-69
2023/01/03 05:56:20;;;;;;;;;;;1.10;99.90;;;;;;4838905;29;19936;-69
2023/01/03 05:58:46;;;;;;;;;;;1.10;99.90;;;;;;4822948;29;19928;-69
2023/01/03 06:01:13;;;;;;;;;;;1.00;99.90;;;;;;4833355;29;19958;-69
2023/01/03 06:03:38;;;;;;;;;;;1.00;99.90;;;;;;4840371;29;19928;-69
2023/01/03 06:06:05;;;;;;;;;;;1.00;99.90;;;;;;4844561;29;19928;-69
2023/01/03 06:08:30;;;;;;;;;;;0.90;99.90;;;;;;4823197;29;19947;-70
2023/01/03 06:10:56;;;;;;;;;;;0.90;99.90;;;;;;4839972;29;19939;-69
2023/01/03 06:13:22;;;;;;;;;;;0.90;99.90;;;;;;4837738;29;21022;-69
2023/01/03 06:17:53;;;;;;;;;;;0.90;99.90;;;;;;4842329;29;20289;-69
2023/01/03 06:18:34;;;;;;;;;;;0.80;99.90;;;;;;4838073;29;19924;-69
2023/01/03 06:21:05;;;;;;;;;;;0.80;99.90;;;;;;4822192;29;19928;-69
2023/01/03 06:23:30;;;;;;;;;;;0.80;99.90;;;;;;4828243;29;20548;-69
2023/01/03 06:25:56;;;;;;;;;;;0.80;99.90;;;;;;4821727;29;20031;-69
2023/01/03 06:28:22;;;;;;;;;;;0.80;99.90;;;;;;4844379;29;20498;-69
2023/01/03 06:30:47;;;;;;;;;;;0.80;99.90;;;;;;4822703;29;19929;-69
2023/01/03 06:33:13;;;;;;;;;;;0.70;99.90;;;;;;4840207;29;19930;-69
2023/01/03 06:35:39;;;;;;;;;;;0.70;99.90;;;;;;4845105;29;20282;-69
2023/01/03 06:38:04;;;;;;;;;;;0.70;99.90;;;;;;4832123;29;19928;-69
2023/01/03 06:40:30;;;;;;;;;;;0.70;99.90;;;;;;4823367;29;19980;-69
2023/01/03 06:42:55;;;;;;;;;;;0.70;99.90;;;;;;4843700;29;19935;-69
2023/01/03 06:53:51;;;;;;;;;;;0.60;99.90;;;;;;4793396;29;19932;-69
2023/01/03 06:56:17;;;;;;;;;;;0.60;99.90;;;;;;4829864;29;19924;-69
2023/01/03 06:58:42;;;;;;;;;;;0.60;99.90;;;;;;4835859;29;19935;-69
2023/01/03 07:01:08;;;;;;;;;;;0.60;99.90;;;;;;4855194;29;19930;-69
2023/01/03 07:03:33;;;;;;;;;;;0.60;99.90;;;;;;4839337;29;19928;-69
2023/01/03 07:05:59;;;;;;;;;;;0.60;99.90;;;;;;4843297;29;19932;-69
2023/01/03 07:08:24;;;;;;;;;;;0.60;99.90;;;;;;4834583;29;19928;-69
2023/01/03 07:10:50;;;;;;;;;;;0.60;99.90;;;;;;4836993;29;19932;-69
2023/01/03 07:16:00;;;;;;;;;;;0.50;99.90;;;;;;4832117;29;20031;-69
2023/01/03 07:18:26;;;;;;;;;;;0.50;99.90;;;;;;4841413;29;20767;-69
2023/01/03 07:20:52;;;;;;;;;;;0.50;99.90;;;;;;4827031;29;19970;-69
2023/01/03 07:23:17;;;;;;;;;;;0.50;99.90;;;;;;4836658;29;20803;-69
2023/01/03 07:25:43;;;;;;;;;;;0.50;99.90;;;;;;4827289;29;19934;-69
2023/01/03 07:28:09;;;;;;;;;;;0.50;99.90;;;;;;4832582;29;19988;-69
2023/01/03 07:30:36;;;;;;;;;;;0.50;99.90;;;;;;4838987;29;19932;-69
2023/01/03 07:33:01;;;;;;;;;;;0.40;99.90;;;;;;4830453;29;19975;-69
2023/01/03 07:35:29;;;;;;;;;;;0.40;99.90;;;;;;4820062;29;19971;-70
2023/01/03 07:37:55;;;;;;;;;;;0.40;99.90;;;;;;4838207;29;20251;-70
2023/01/03 07:40:20;;;;;;;;;;;0.40;99.90;;;;;;4835873;29;19928;-69
2023/01/03 07:45:30;;;;;;;;;;;0.40;99.90;;;;;;4826604;29;19931;-70
2023/01/03 07:47:56;;;;;;;;;;;0.50;99.90;;;;;;4838694;29;20400;-70
2023/01/03 07:50:22;;;;;;;;;;;0.50;99.90;;;;;;4824819;29;19940;-70
2023/01/03 07:52:47;;;;;;;;;;;0.50;99.90;;;;;;4839717;29;19964;-69
2023/01/03 07:55:13;;;;;;;;;;;0.50;99.90;;;;;;4838610;29;20338;-69
2023/01/03 07:57:38;;;;;;;;;;;0.50;99.90;;;;;;4851756;29;21064;-69
2023/01/03 08:00:04;;;;;;;;;;;0.50;99.90;;;;;;4820592;29;19955;-69
2023/01/03 08:02:30;;;;;;;;;;;0.50;99.90;;;;;;4836947;29;19936;-69
2023/01/03 08:04:55;;;;;;;;;;;0.50;99.90;;;;;;4836958;29;19948;-69
2023/01/03 08:07:23;;;;;;;;;;;0.50;99.90;;;;;;4859351;29;20144;-70
2023/01/03 08:15:17;;;;;;;;;;;0.50;99.90;;;;;;4843709;29;20014;-70
2023/01/03 08:17:42;;;;;;;;;;;0.50;99.90;;;;;;4824359;29;20014;-70
2023/01/03 08:20:08;;;;;;;;;;;0.50;99.90;;;;;;4836081;29;19935;-70
2023/01/03 08:22:34;;;;;;;;;;;0.60;99.90;;;;;;4837587;29;20369;-70
2023/01/03 08:24:59;;;;;;;;;;;0.60;99.90;;;;;;4850256;29;20023;-70
2023/01/03 08:27:25;;;;;;;;;;;0.60;99.90;;;;;;4826595;29;20015;-70
2023/01/03 08:29:50;;;;;;;;;;;0.60;99.90;;;;;;4824791;29;19936;-71
2023/01/03 08:32:16;;;;;;;;;;;0.60;99.90;;;;;;4839147;29;19952;-70
2023/01/03 08:34:43;;;;;;;;;;;0.50;99.90;;;;;;4839891;29;19967;-70
2023/01/03 08:37:10;;;;;;;;;;;0.50;99.90;;;;;;4838279;29;19962;-70
2023/01/03 08:39:38;;;;;;;;;;;0.50;99.90;;;;;;4831771;29;19928;-70
2023/01/03 08:42:05;;;;;;;;;;;0.50;99.90;;;;;;4834664;29;19924;-70
2023/01/03 08:44:30;;;;;;;;;;;0.50;99.90;;;;;;4835606;29;19928;-70
2023/01/03 08:46:57;;;;;;;;;;;0.50;99.90;;;;;;4823965;29;19936;-70
2023/01/03 08:49:24;;;;;;;;;;;0.60;99.90;;;;;;4836389;29;19935;-71
2023/01/03 08:51:50;;;;;;;;;;;0.60;99.90;;;;;;4827183;29;20420;-71
2023/01/03 08:54:15;;;;;;;;;;;0.70;99.90;;;;;;4823079;29;19924;-70
2023/01/03 08:56:41;;;;;;;;;;;0.70;99.90;;;;;;4836444;29;19963;-70
2023/01/03 08:59:07;;;;;;;;;;;0.80;99.90;;;;;;4831281;29;19935;-71
2023/01/03 09:01:33;;;;;;;;;;;0.80;99.90;;;;;;4824454;29;19968;-70
2023/01/03 09:03:58;;;;;;;;;;;0.90;99.90;;;;;;4820599;29;20341;-70
2023/01/03 09:06:24;;;;;;;;;;;0.90;99.90;;;;;;4826494;29;19937;-70
2023/01/03 09:08:50;;;;;;;;;;;1.00;99.90;;;;;;4829946;29;20347;-70
2023/01/03 09:11:15;;;;;;;;;;;1.00;99.90;;;;;;4826017;29;19924;-71
2023/01/03 09:13:41;;;;;;;;;;;1.10;99.90;;;;;;4826813;29;19929;-71
2023/01/03 09:16:08;;;;;;;;;;;1.20;99.90;;;;;;4810055;29;20023;-70
2023/01/03 09:18:34;;;;;;;;;;;1.20;99.90;;;;;;4809335;29;20362;-70
2023/01/03 09:21:01;;;;;;;;;;;1.30;99.90;;;;;;4826179;29;19928;-70
2023/01/03 09:23:27;;;;;;;;;;;1.40;99.90;;;;;;4830641;29;19950;-70
2023/01/03 09:25:53;;;;;;;;;;;1.50;99.90;;;;;;4796475;29;19925;-70
2023/01/03 09:28:19;;;;;;;;;;;1.50;99.90;;;;;;4827747;29;20008;-70
2023/01/03 09:30:44;;;;;;;;;;;1.60;99.90;;;;;;4797622;29;19971;-70
2023/01/03 09:33:10;;;;;;;;;;;1.70;99.90;;;;;;4832146;29;19929;-70
2023/01/03 09:35:36;;;;;;;;;;;1.70;99.90;;;;;;4833576;29;19925;-70
2023/01/03 09:38:02;;;;;;;;;;;1.80;99.90;;;;;;4835644;29;19929;-70
2023/01/03 09:40:29;;;;;;;;;;;1.80;99.90;;;;;;4823417;29;20479;-70
2023/01/03 09:43:13;;;;;;;;;;;1.90;99.90;;;;;;4827853;29;19925;-70
2023/01/03 09:45:42;;;;;;;;;;;2.00;99.90;;;;;;4828215;29;19928;-70
2023/01/03 09:48:11;;;;;;;;;;;2.00;99.90;;;;;;4833560;29;19925;-70
2023/01/03 09:50:37;;;;;;;;;;;2.10;99.90;;;;;;4830238;29;19940;-70
2023/01/03 10:04:28;;;;;;;;;;;2.40;99.90;;;;;;4838152;29;20325;-70
2023/01/03 10:07:12;;;;;;;;;;;2.50;99.90;;;;;;4828849;29;19940;-70
2023/01/03 10:09:47;;;;;;;;;;;2.60;99.90;;;;;;4853801;29;20015;-70
2023/01/03 10:12:27;;;;;;;;;;;2.70;99.90;;;;;;4833795;29;19932;-70
2023/01/03 10:15:08;;;;;;;;;;;2.70;99.90;;;;;;4826186;29;20203;-70
2023/01/03 10:17:52;;;;;;;;;;;2.80;99.90;;;;;;4830512;29;19936;-70
2023/01/03 10:20:45;;;;;;;;;;;2.90;99.90;;;;;;4830933;29;19924;-70
2023/01/03 10:23:10;;;;;;;;;;;2.90;99.90;;;;;;4811538;29;19985;-70
2023/01/03 10:25:40;;;;;;;;;;;3.10;99.90;;;;;;4830716;29;19928;-70
2023/01/03 10:28:20;;;;;;;;;;;3.20;99.90;;;;;;4832241;29;20019;-70
2023/01/03 10:30:54;;;;;;;;;;;3.30;99.90;;;;;;4831828;29;20061;-70
2023/01/03 10:33:27;;;;;;;;;;;3.50;99.90;;;;;;4816766;29;19980;-70
2023/01/03 10:35:53;;;;;;;;;;;3.60;99.90;;;;;;4828112;29;19952;-70
2023/01/03 10:38:21;;;;;;;;;;;3.70;99.90;;;;;;4832331;29;20322;-70
2023/01/03 10:40:49;;;;;;;;;;;3.70;99.90;;;;;;4820097;29;20453;-70
2023/01/03 10:43:24;;;;;;;;;;;3.80;99.90;;;;;;4833505;29;19959;-70
2023/01/03 10:45:51;;;;;;;;;;;3.90;99.90;;;;;;4844202;29;20349;-70
2023/01/03 10:48:17;;;;;;;;;;;4.10;99.90;;;;;;4830224;29;20013;-70
2023/01/03 10:50:42;;;;;;;;;;;4.20;99.90;;;;;;4831676;29;19980;-70
2023/01/03 10:53:10;;;;;;;;;;;4.30;99.90;;;;;;4830837;29;20312;-70
2023/01/03 10:55:43;;;;;;;;;;;4.40;99.90;;;;;;4827746;29;20361;-70
2023/01/03 10:58:16;;;;;;;;;;;4.50;99.90;;;;;;4829674;29;19925;-70
2023/01/03 11:00:42;;;;;;;;;;;4.50;99.90;;;;;;4843817;29;19936;-70
2023/01/03 11:03:08;;;;;;;;;;;4.60;99.90;;;;;;4816574;29;19928;-70
2023/01/03 11:05:34;;;;;;;;;;;4.60;99.90;;;;;;4830047;29;20472;-70
2023/01/03 11:08:04;;;;;;;;;;;4.60;99.90;;;;;;4830347;29;20393;-70
2023/01/03 11:10:37;;;;;;;;;;;4.70;99.90;;;;;;4816079;29;20019;-70
2023/01/03 11:13:35;;;;;;;;;;;4.70;99.90;;;;;;4843549;29;19932;-70
2023/01/03 11:16:02;;;;;;;;;;;4.70;99.90;;;;;;4800441;29;19972;-70
2023/01/03 11:18:28;;;;;;;;;;;4.80;99.90;;;;;;4819454;29;20015;-70
2023/01/03 11:21:13;;;;;;;;;;;4.80;99.90;;;;;;4832692;29;19932;-70
2023/01/03 11:23:38;;;;;;;;;;;4.80;99.90;;;;;;4822675;29;19978;-70
2023/01/03 11:26:07;;;;;;;;;;;4.90;99.90;;;;;;4833182;29;19964;-70
2023/01/03 11:28:57;;;;;;;;;;;4.90;99.90;;;;;;4818047;29;19975;-70
2023/01/03 11:31:29;;;;;;;;;;;4.90;99.90;;;;;;4837043;29;19933;-70
2023/01/03 11:34:13;;;;;;;;;;;4.90;99.90;;;;;;4838256;29;19932;-70
2023/01/03 11:36:48;;;;;;;;;;;5.00;99.90;;;;;;4833498;29;19928;-70
2023/01/03 11:39:28;;;;;;;;;;;5.00;99.90;;;;;;4837222;29;20050;-70
2023/01/03 11:41:57;;;;;;;;;;;5.00;99.90;;;;;;4834087;29;19928;-70
2023/01/03 11:44:44;;;;;;;;;;;5.10;99.90;;;;;;4847072;29;20066;-71
2023/01/03 11:47:09;;;;;;;;;;;5.10;99.90;;;;;;4834834;29;19935;-71
2023/01/03 11:49:50;;;;;;;;;;;5.10;99.90;;;;;;4839120;29;20011;-70
2023/01/03 11:52:27;;;;;;;;;;;5.10;99.90;;;;;;4853954;29;20270;-70
2023/01/03 11:54:56;;;;;;;;;;;5.20;99.90;;;;;;4828237;29;19976;-70
2023/01/03 11:57:33;;;;;;;;;;;5.20;99.90;;;;;;4833199;29;20016;-70
2023/01/03 12:00:14;;;;;;;;;;;5.20;99.90;;;;;;4829724;29;19932;-70
2023/01/03 12:02:58;;;;;;;;;;;5.30;99.90;;;;;;4821503;29;20381;-71
2023/01/03 12:05:41;;;;;;;;;;;5.30;99.90;;;;;;4832862;29;20002;-70
2023/01/03 12:08:18;;;;;;;;;;;5.40;99.90;;;;;;4850475;29;20364;-70
2023/01/03 12:10:57;;;;;;;;;;;5.40;99.90;;;;;;4834845;29;19936;-70
2023/01/03 12:13:31;;;;;;;;;;;5.40;99.90;;;;;;4847164;29;19936;-70
2023/01/03 12:16:01;;;;;;;;;;;5.40;99.90;;;;;;4833768;29;19934;-71
2023/01/03 12:18:41;;;;;;;;;;;5.40;99.90;;;;;;4832069;29;19932;-70
2023/01/03 12:21:13;;;;;;;;;;;5.40;99.90;;;;;;4831606;29;19928;-69
2023/01/03 12:23:51;;;;;;;;;;;5.40;99.90;;;;;;4833741;29;19932;-71
2023/01/03 12:26:17;;;;;;;;;;;5.50;99.90;;;;;;4834784;29;19925;-70
2023/01/03 12:28:47;;;;;;;;;;;5.50;99.90;;;;;;4822363;29;19932;-70
2023/01/03 12:31:19;;;;;;;;;;;5.50;99.90;;;;;;4830787;29;19961;-71
2023/01/03 12:34:08;;;;;;;;;;;5.60;99.90;;;;;;4831718;29;20434;-70
2023/01/03 12:36:40;;;;;;;;;;;5.60;99.90;;;;;;4807695;29;19932;-71
2023/01/03 12:39:13;;;;;;;;;;;5.60;99.90;;;;;;4821805;29;19925;-70
2023/01/03 12:41:52;;;;;;;;;;;5.70;99.90;;;;;;4817290;29;19924;-71
2023/01/03 12:44:31;;;;;;;;;;;5.70;99.90;;;;;;4832885;29;19947;-70
2023/01/03 12:46:57;;;;;;;;;;;5.80;99.90;;;;;;4846519;29;19928;-70
2023/01/03 12:49:42;;;;;;;;;;;5.80;99.90;;;;;;4832508;29;21015;-70
2023/01/03 12:52:13;;;;;;;;;;;5.80;99.90;;;;;;4827379;29;20035;-70
2023/01/03 12:54:42;;;;;;;;;;;5.80;99.90;;;;;;4833611;29;19967;-71
2023/01/03 12:57:28;;;;;;;;;;;5.90;99.90;;;;;;4837035;29;19992;-71
2023/01/03 13:00:12;;;;;;;;;;;5.80;99.90;;;;;;4828401;29;19924;-71
2023/01/03 13:02:51;;;;;;;;;;;5.90;99.90;;;;;;4845004;29;19924;-71
2023/01/03 13:05:28;;;;;;;;;;;5.90;99.90;;;;;;4831793;29;19928;-70
2023/01/03 13:08:08;;;;;;;;;;;5.90;99.90;;;;;;4818324;29;20034;-70
2023/01/03 13:10:36;;;;;;;;;;;5.90;99.90;;;;;;4842775;29;19928;-71
2023/01/03 13:13:02;;;;;;;;;;;6.00;99.90;;;;;;4832297;29;19937;-70
2023/01/03 13:15:35;;;;;;;;;;;6.00;99.90;;;;;;4817734;29;19985;-71
2023/01/03 13:18:19;;;;;;;;;;;6.00;99.90;;;;;;4835649;29;20298;-70
2023/01/03 13:20:46;;;;;;;;;;;6.00;99.90;;;;;;4827188;29;19924;-70
2023/01/03 13:23:30;;;;;;;;;;;6.10;99.90;;;;;;4846779;29;20433;-70
2023/01/03 13:26:03;;;;;;;;;;;6.10;99.90;;;;;;4833441;29;19933;-71
2023/01/03 13:28:30;;;;;;;;;;;6.20;99.90;;;;;;4830794;29;19928;-71
2023/01/03 13:31:17;;;;;;;;;;;6.20;99.90;;;;;;4844571;29;19980;-71
2023/01/03 13:33:55;;;;;;;;;;;6.20;99.90;;;;;;4831479;29;20023;-71
2023/01/03 13:36:21;;;;;;;;;;;6.20;99.90;;;;;;4845367;29;20027;-71
2023/01/03 13:38:47;;;;;;;;;;;6.30;99.90;;;;;;4830376;29;19932;-71
2023/01/03 13:41:31;;;;;;;;;;;6.30;99.90;;;;;;4834796;29;19925;-71
2023/01/03 13:44:06;;;;;;;;;;;6.30;99.90;;;;;;4828984;29;20109;-71
2023/01/03 13:46:32;;;;;;;;;;;6.40;99.90;;;;;;4831759;29;19928;-71
2023/01/03 13:48:59;;;;;;;;;;;6.40;99.90;;;;;;4820452;29;19947;-71
2023/01/03 13:51:31;;;;;;;;;;;6.40;99.90;;;;;;4832574;29;19932;-70
2023/01/03 13:54:01;;;;;;;;;;;6.50;99.90;;;;;;4833039;29;20413;-70
2023/01/03 13:56:53;;;;;;;;;;;6.50;99.90;;;;;;4838948;29;19938;-70
2023/01/03 13:59:41;;;;;;;;;;;6.50;99.90;;;;;;4821447;29;19932;-71
2023/01/03 14:02:16;;;;;;;;;;;6.50;99.90;;;;;;4830180;29;19929;-71
2023/01/03 14:05:00;;;;;;;;;;;6.50;99.90;;;;;;4814575;29;19924;-71
2023/01/03 14:07:45;;;;;;;;;;;6.60;99.90;;;;;;4830280;29;19933;-71
2023/01/03 14:10:20;;;;;;;;;;;6.60;99.90;;;;;;4830006;29;20431;-71
2023/01/03 14:13:04;;;;;;;;;;;6.60;99.90;;;;;;4831351;29;19928;-71
2023/01/03 14:15:31;;;;;;;;;;;6.70;99.90;;;;;;4828430;29;19929;-71
2023/01/03 14:17:58;;;;;;;;;;;6.70;99.90;;;;;;4823182;29;20394;-71
2023/01/03 14:20:30;;;;;;;;;;;6.70;99.90;;;;;;4827737;29;19925;-71
2023/01/03 14:22:59;;;;;;;;;;;6.70;99.90;;;;;;4830698;29;19929;-71
2023/01/03 14:25:34;;;;;;;;;;;6.70;99.90;;;;;;4831187;29;20334;-71
2023/01/03 14:28:01;;;;;;;;;;;6.70;99.90;;;;;;4832748;29;19932;-71
2023/01/03 14:30:29;;;;;;;;;;;6.70;99.90;;;;;;4833000;29;19936;-71
2023/01/03 14:32:55;;;;;;;;;;;6.70;99.90;;;;;;4832581;29;20397;-71
2023/01/03 14:35:30;;;;;;;;;;;6.70;99.90;;;;;;4803965;29;19935;-71
2023/01/03 14:37:55;;;;;;;;;;;6.70;99.90;;;;;;4833429;29;19925;-71
2023/01/03 14:40:21;;;;;;;;;;;6.70;99.90;;;;;;4828687;29;19962;-71
2023/01/03 14:42:46;;;;;;;;;;;6.70;99.90;;;;;;4812130;29;19968;-71
2023/01/03 14:45:16;;;;;;;;;;;6.70;99.90;;;;;;4828473;29;20428;-71
2023/01/03 14:47:42;;;;;;;;;;;6.70;99.90;;;;;;4834121;29;20014;-71
2023/01/03 14:50:14;;;;;;;;;;;6.70;99.90;;;;;;4832293;29;20423;-71
2023/01/03 14:52:41;;;;;;;;;;;6.70;99.90;;;;;;4830916;29;19928;-71
2023/01/03 14:55:11;;;;;;;;;;;6.70;99.90;;;;;;4832098;29;19965;-71
2023/01/03 14:57:38;;;;;;;;;;;6.70;99.90;;;;;;4825516;29;20088;-71
2023/01/03 15:00:05;;;;;;;;;;;6.70;99.90;;;;;;4815229;29;19925;-71
2023/01/03 15:02:34;;;;;;;;;;;6.80;99.90;;;;;;4814883;29;20081;-71
2023/01/03 15:05:01;;;;;;;;;;;6.80;99.90;;;;;;4828474;29;19932;-71
2023/01/03 15:07:31;;;;;;;;;;;6.80;99.90;;;;;;4831787;29;19943;-71
2023/01/03 15:10:04;;;;;;;;;;;6.80;99.90;;;;;;4832592;29;19940;-71
2023/01/03 15:12:33;;;;;;;;;;;6.80;99.90;;;;;;4831032;29;19954;-71
2023/01/03 15:15:06;;;;;;;;;;;6.80;99.90;;;;;;4827875;29;19929;-71
2023/01/03 15:17:31;;;;;;;;;;;6.80;99.90;;;;;;4826972;29;20266;-71
2023/01/03 15:19:57;;;;;;;;;;;6.70;99.90;;;;;;4800780;29;19928;-71
2023/01/03 15:22:25;;;;;;;;;;;6.70;99.90;;;;;;4815569;29;19928;-71
2023/01/03 15:25:02;;;;;;;;;;;6.70;99.90;;;;;;4831487;29;19974;-71
2023/01/03 15:27:30;;;;;;;;;;;6.80;99.90;;;;;;4827440;29;19947;-70
2023/01/03 15:30:07;;;;;;;;;;;6.70;99.90;;;;;;4840412;29;19940;-70
2023/01/03 15:32:43;;;;;;;;;;;6.70;99.90;;;;;;4827295;29;19968;-71
2023/01/03 15:35:17;;;;;;;;;;;6.70;99.90;;;;;;4829678;29;19924;-69
2023/01/03 15:37:43;;;;;;;;;;;6.70;99.90;;;;;;4825391;29;19975;-69
2023/01/03 15:40:09;;;;;;;;;;;6.70;99.90;;;;;;4830522;29;19975;-69
2023/01/03 15:45:22;;;;;;;;;;;6.70;99.90;;;;;;4823046;29;19928;-69
2023/01/03 15:47:49;;;;;;;;;;;6.70;99.90;;;;;;4827675;29;19924;-69
2023/01/03 15:50:17;;;;;;;;;;;6.70;99.90;;;;;;4822428;29;19982;-69
2023/01/03 15:52:43;;;;;;;;;;;6.70;99.90;;;;;;4832691;29;19924;-69